Time;durP1;ratioP1;P1;durP2;ratioP2;P2;SDS_P1;SDS_P2;PMS_P1;PMS_P2;Temp;Humidity;BMP_temperature;BMP_pressure;BME280_temperature;BME280_humidity;BME280_pressure;Samples;Min_cycle;Max_cycle;Signal;HPM_P1;HPM_P2
2022/03/27 00:00:44;;;;;;;0.97;0.40;;;;;;;7.69;75.64;96347.38;5091905;28;20432;-54
2022/03/27 00:03:14;;;;;;;0.30;0.20;;;;;;;8.12;70.05;96322.56;5092093;28;20472;-54
2022/03/27 00:05:43;;;;;;;0.30;0.20;;;;;;;8.14;70.42;96329.22;5091951;28;20516;-54
2022/03/27 00:08:11;;;;;;;0.30;0.20;;;;;;;7.97;71.55;96330.13;5091890;28;20499;-54
2022/03/27 00:13:26;;;;;;;0.63;0.63;;;;;;;6.93;79.85;96283.94;5091790;28;20432;-54
2022/03/27 00:15:54;;;;;;;0.40;0.30;;;;;;;7.36;79.45;96328.56;5091848;28;20733;-54
2022/03/27 00:18:24;;;;;;;0.30;0.20;;;;;;;7.49;79.97;96340.78;5092148;28;20465;-54
2022/03/27 00:20:53;;;;;;;0.40;0.30;;;;;;;7.61;79.34;96331.09;5091665;28;20465;-52
2022/03/27 00:23:22;;;;;;;0.70;0.70;;;;;;;7.99;74.57;96335.97;5091627;28;20513;-53
2022/03/27 00:25:51;;;;;;;1.67;1.07;;;;;;;7.46;79.23;96331.47;5091508;28;20464;-53
2022/03/27 00:28:20;;;;;;;0.30;0.20;;;;;;;7.33;80.12;96305.31;5091942;28;20444;-54
2022/03/27 00:30:49;;;;;;;1.27;0.97;;;;;;;7.09;83.68;96329.16;5091599;28;20524;-53
2022/03/27 00:33:18;;;;;;;1.93;1.83;;;;;;;7.39;81.51;96332.59;5091522;28;20444;-54
2022/03/27 00:35:48;;;;;;;0.43;0.43;;;;;;;7.48;78.74;96328.63;5091789;28;20440;-55
2022/03/27 00:38:17;;;;;;;0.40;0.30;;;;;;;7.52;77.99;96330.59;5091842;28;20511;-56
2022/03/27 00:40:45;;;;;;;0.40;0.30;;;;;;;7.69;75.62;96344.72;5091694;28;20437;-54
2022/03/27 00:43:14;;;;;;;0.40;0.30;;;;;;;7.50;75.00;96305.47;5090980;28;20491;-55
2022/03/27 00:45:42;;;;;;;0.30;0.27;;;;;;;7.48;76.54;96323.34;5091651;28;20460;-54
2022/03/27 00:48:11;;;;;;;0.40;0.30;;;;;;;6.86;81.58;96314.03;5091676;28;20789;-55
2022/03/27 00:50:41;;;;;;;0.50;0.40;;;;;;;7.37;78.13;96324.91;5091862;28;20791;-54
2022/03/27 00:53:11;;;;;;;0.40;0.30;;;;;;;7.48;73.45;96324.16;5091604;28;20417;-54
2022/03/27 00:55:39;;;;;;;0.37;0.27;;;;;;;7.62;73.21;96330.84;5091436;28;20475;-54
2022/03/27 00:58:09;;;;;;;0.60;0.60;;;;;;;7.17;75.79;96292.75;5090614;28;20508;-55
2022/03/27 01:00:48;;;;;;;0.60;0.60;;;;;;;7.16;75.86;96301.66;5090264;28;20436;-54
2022/03/27 01:03:20;;;;;;;0.40;0.30;;;;;;;6.66;82.08;96316.09;5091365;28;20506;-60
2022/03/27 01:05:50;;;;;;;0.30;0.20;;;;;;;5.81;80.77;96166.94;5091403;28;20428;-55
2022/03/27 01:11:13;;;;;;;0.57;0.57;;;;;;;6.76;81.15;96301.38;5094576;28;20462;-55
2022/03/27 01:13:50;;;;;;;1.03;1.03;;;;;;;6.68;82.97;96306.16;5095204;28;20440;-60
2022/03/27 01:16:32;;;;;;;0.30;0.20;;;;;;;7.11;77.55;96306.03;5095150;28;21073;-53
2022/03/27 01:19:02;;;;;;;0.47;0.27;;;;;;;6.48;80.66;96285.28;5094749;28;20437;-53
2022/03/27 01:21:32;;;;;;;0.50;0.30;;;;;;;6.46;84.47;96302.34;5094886;28;20482;-53
2022/03/27 01:24:00;;;;;;;0.30;0.20;;;;;;;6.73;82.03;96306.31;5094662;28;20475;-54
2022/03/27 01:26:29;;;;;;;0.37;0.23;;;;;;;6.65;82.40;96303.97;5094863;28;20405;-54
2022/03/27 01:28:57;;;;;;;0.30;0.20;;;;;;;6.93;79.13;96309.50;5093742;28;20454;-54
2022/03/27 01:31:26;;;;;;;0.30;0.20;;;;;;;7.23;76.00;96318.22;5093746;28;20511;-54
2022/03/27 01:33:55;;;;;;;0.50;0.50;;;;;;;6.60;82.18;96311.72;5094692;28;20795;-55
2022/03/27 01:36:25;;;;;;;0.40;0.30;;;;;;;6.26;81.21;96281.47;5094719;28;20511;-54
2022/03/27 01:38:57;;;;;;;0.93;0.93;;;;;;;6.44;83.50;96322.81;5094522;28;20475;-53
2022/03/27 01:41:26;;;;;;;0.30;0.30;;;;;;;5.99;86.52;96316.97;5094761;28;20564;-53
2022/03/27 01:43:56;;;;;;;0.30;0.20;;;;;;;6.11;90.09;96339.75;5094704;28;20480;-54
2022/03/27 01:46:25;;;;;;;0.30;0.20;;;;;;;5.25;92.02;96272.19;5093673;28;20435;-54
2022/03/27 01:48:54;;;;;;;0.30;0.20;;;;;;;5.49;93.38;96379.25;5094169;28;20814;-54
2022/03/27 01:51:22;;;;;;;3.43;0.37;;;;;;;5.92;90.35;96327.53;5094173;28;20863;-53
2022/03/27 01:53:50;;;;;;;0.50;0.30;;;;;;;5.91;91.88;96328.59;5094082;28;20452;-53
2022/03/27 01:56:21;;;;;;;0.60;0.50;;;;;;;6.29;87.46;96342.41;5094165;28;20448;-53
2022/03/27 01:58:49;;;;;;;0.40;0.30;;;;;;;6.31;87.37;96344.81;5093135;28;20511;-54
2022/03/27 02:01:19;;;;;;;0.97;0.40;;;;;;;6.47;85.66;96336.38;5093960;28;20468;-54
2022/03/27 02:03:48;;;;;;;0.50;0.40;;;;;;;6.44;85.94;96334.16;5093855;28;20468;-53
2022/03/27 02:06:17;;;;;;;0.30;0.20;;;;;;;6.27;85.41;96312.84;5094274;28;20479;-53
2022/03/27 02:08:46;;;;;;;0.30;0.20;;;;;;;6.35;84.61;96330.19;5093625;28;20508;-53
2022/03/27 02:11:15;;;;;;;0.40;0.30;;;;;;;6.09;84.75;96277.81;5093802;28;20893;-54
2022/03/27 02:13:44;;;;;;;0.40;0.30;;;;;;;6.50;83.66;96330.66;5093214;28;20483;-53
2022/03/27 02:16:13;;;;;;;0.40;0.40;;;;;;;6.50;81.66;96338.56;5093743;28;20477;-53
2022/03/27 02:18:42;;;;;;;0.40;0.30;;;;;;;6.16;85.02;96337.28;5093779;28;20436;-54
2022/03/27 02:21:11;;;;;;;1.20;1.20;;;;;;;6.22;84.59;96344.28;5093915;28;20459;-54
2022/03/27 02:23:40;;;;;;;0.30;0.20;;;;;;;6.22;83.28;96333.75;5093806;28;20504;-53
2022/03/27 02:26:08;;;;;;;0.30;0.20;;;;;;;5.54;80.05;96184.84;5092954;28;20460;-54
2022/03/27 02:28:37;;;;;;;0.30;0.20;;;;;;;6.55;81.20;96351.06;5093682;28;20529;-54
2022/03/27 02:31:06;;;;;;;0.77;0.77;;;;;;;6.37;83.51;96352.63;5093290;28;20464;-54
2022/03/27 02:33:35;;;;;;;0.50;0.47;;;;;;;6.24;83.83;96359.88;5093460;28;20417;-54
2022/03/27 02:36:08;;;;;;;0.40;0.40;;;;;;;6.24;81.11;96307.22;5092154;28;20909;-54
2022/03/27 02:38:37;;;;;;;0.80;0.80;;;;;;;5.75;83.33;96290.44;5093378;28;20463;-54
2022/03/27 02:41:06;;;;;;;1.13;0.67;;;;;;;6.16;85.02;96353.06;5093276;28;20489;-54
2022/03/27 02:43:38;;;;;;;0.57;0.57;;;;;;;5.90;85.77;96345.38;5093271;28;20475;-54
2022/03/27 02:46:08;;;;;;;0.30;0.20;;;;;;;5.67;90.61;96360.88;5092791;28;20473;-53
2022/03/27 02:48:37;;;;;;;0.53;0.53;;;;;;;5.79;88.32;96356.56;5092828;28;20462;-53
2022/03/27 02:51:06;;;;;;;0.50;0.50;;;;;;;6.10;85.17;96363.63;5091651;28;20456;-53
2022/03/27 02:53:35;;;;;;;5.90;1.17;;;;;;;5.40;90.07;96325.28;5092547;28;20436;-54
2022/03/27 02:56:06;;;;;;;0.30;0.20;;;;;;;6.03;86.41;96361.06;5093105;28;20451;-53
2022/03/27 02:58:35;;;;;;;0.73;0.73;;;;;;;5.99;83.69;96330.94;5092721;28;20457;-54
2022/03/27 03:01:04;;;;;;;0.40;0.23;;;;;;;6.40;80.20;96356.66;5092638;28;20421;-54
2022/03/27 03:03:34;;;;;;;0.87;0.87;;;;;;;6.48;79.74;96371.41;5091595;28;20434;-54
2022/03/27 03:06:06;;;;;;;0.30;0.20;;;;;;;6.44;78.91;96367.59;5092945;28;20417;-54
2022/03/27 03:08:38;;;;;;;0.37;0.37;;;;;;;6.51;77.85;96358.59;5092004;28;20475;-54
2022/03/27 03:11:08;;;;;;;0.30;0.20;;;;;;;6.40;78.92;96368.00;5092426;28;20481;-54
2022/03/27 03:13:36;;;;;;;0.53;0.50;;;;;;;6.36;79.28;96374.75;5092556;28;20440;-54
2022/03/27 03:16:08;;;;;;;0.30;0.20;;;;;;;6.29;79.20;96358.22;5092219;28;21149;-54
2022/03/27 03:18:38;;;;;;;0.30;0.20;;;;;;;6.28;80.01;96372.38;5092235;28;20482;-54
2022/03/27 03:21:07;;;;;;;0.30;0.20;;;;;;;6.30;80.97;96375.59;5092242;28;20925;-54
2022/03/27 03:23:36;;;;;;;0.30;0.20;;;;;;;6.08;79.58;96324.38;5092109;28;20429;-54
2022/03/27 03:26:05;;;;;;;0.30;0.20;;;;;;;6.23;80.42;96368.78;5092171;28;20424;-54
2022/03/27 03:28:36;;;;;;;1.17;1.03;;;;;;;5.72;83.07;96325.03;5092432;28;20519;-54
2022/03/27 03:31:05;;;;;;;0.50;0.40;;;;;;;5.39;81.90;96276.38;5092132;28;20783;-54
2022/03/27 03:33:33;;;;;;;0.40;0.27;;;;;;;5.97;82.53;96376.91;5091660;28;20486;-54
2022/03/27 03:36:03;;;;;;;0.30;0.20;;;;;;;6.08;80.51;96370.94;5091348;28;20494;-54
2022/03/27 03:38:32;;;;;;;0.30;0.20;;;;;;;6.07;79.23;96369.34;5092134;28;20428;-54
2022/03/27 03:41:01;;;;;;;0.30;0.20;;;;;;;5.65;79.46;96299.81;5090950;28;20501;-54
2022/03/27 03:43:30;;;;;;;0.30;0.20;;;;;;;5.88;80.28;96355.31;5092179;28;20432;-54
2022/03/27 03:45:59;;;;;;;0.43;0.43;;;;;;;5.43;81.59;96293.31;5091770;28;20516;-54
2022/03/27 03:48:27;;;;;;;0.30;0.20;;;;;;;5.99;79.64;96335.41;5092226;28;20452;-55
2022/03/27 03:50:56;;;;;;;0.40;0.40;;;;;;;4.94;79.66;96208.13;5091420;28;20489;-54
2022/03/27 03:53:27;;;;;;;0.30;0.20;;;;;;;6.00;78.79;96374.66;5090961;28;20459;-54
2022/03/27 03:55:56;;;;;;;0.37;0.30;;;;;;;5.66;81.55;96343.53;5091747;28;20814;-54
2022/03/27 03:58:24;;;;;;;0.40;0.30;;;;;;;5.21;91.45;96391.91;5091690;28;20485;-54
2022/03/27 04:00:52;;;;;;;0.30;0.20;;;;;;;5.42;91.15;96388.97;5091898;28;20577;-54
2022/03/27 04:03:21;;;;;;;1.33;0.70;;;;;;;4.93;94.86;96377.25;5091642;28;20438;-54
2022/03/27 04:05:50;;;;;;;0.60;0.60;;;;;;;5.21;96.43;96387.47;5090663;28;20468;-54
2022/03/27 04:08:18;;;;;;;0.57;0.57;;;;;;;4.11;100.00;96374.41;5091750;28;20464;-54
2022/03/27 04:10:48;;;;;;;23.57;0.60;;;;;;;4.22;100.00;96423.66;5091449;28;20519;-54
2022/03/27 04:13:17;;;;;;;0.50;0.50;;;;;;;4.11;100.00;96399.84;5091862;28;20511;-54
2022/03/27 04:15:46;;;;;;;0.30;0.20;;;;;;;4.69;100.00;96409.47;5091901;28;20875;-54
2022/03/27 04:18:24;;;;;;;0.67;0.40;;;;;;;4.43;100.00;96412.13;5091687;28;20477;-54
2022/03/27 04:20:52;;;;;;;0.37;0.30;;;;;;;4.46;100.00;96424.84;5091026;28;20505;-54
2022/03/27 04:23:21;;;;;;;0.30;0.20;;;;;;;4.29;100.00;96410.53;5091444;28;20989;-54
2022/03/27 04:25:51;;;;;;;0.53;0.47;;;;;;;4.45;100.00;96415.38;5091752;28;20479;-54
2022/03/27 04:28:19;;;;;;;0.77;0.77;;;;;;;4.02;100.00;96359.91;5091982;28;20456;-54
2022/03/27 04:30:48;;;;;;;1.37;0.97;;;;;;;4.45;100.00;96418.78;5091463;28;20558;-54
2022/03/27 04:33:17;;;;;;;0.60;0.60;;;;;;;4.48;100.00;96421.00;5091904;28;20513;-54
2022/03/27 04:35:45;;;;;;;1.13;1.03;;;;;;;4.60;100.00;96412.53;5090877;28;20475;-54
2022/03/27 04:38:16;;;;;;;0.30;0.20;;;;;;;4.78;100.00;96416.09;5091028;28;20428;-54
2022/03/27 04:40:44;;;;;;;0.50;0.47;;;;;;;5.10;100.00;96412.56;5091824;28;20447;-54
2022/03/27 04:43:14;;;;;;;0.40;0.40;;;;;;;5.47;98.44;96412.78;5093955;28;20995;-54
2022/03/27 04:45:42;;;;;;;0.60;0.53;;;;;;;5.28;99.04;96409.28;5094969;28;20565;-54
2022/03/27 04:48:11;;;;;;;0.40;0.30;;;;;;;5.74;94.00;96414.28;5094630;28;20493;-54
2022/03/27 04:50:39;;;;;;;0.30;0.20;;;;;;;5.76;94.42;96415.69;5095730;28;20474;-54
2022/03/27 04:53:10;;;;;;;8.60;0.40;;;;;;;6.13;86.64;96424.56;5095641;28;20507;-54
2022/03/27 04:55:38;;;;;;;0.40;0.30;;;;;;;6.27;84.62;96420.78;5095276;28;20466;-54
2022/03/27 04:58:09;;;;;;;0.53;0.53;;;;;;;6.27;83.22;96423.41;5095373;28;20467;-54
2022/03/27 05:00:39;;;;;;;0.30;0.20;;;;;;;6.29;84.54;96416.13;5095177;28;20450;-55
2022/03/27 05:03:07;;;;;;;0.87;0.87;;;;;;;6.38;83.47;96408.75;5094211;28;20424;-54
2022/03/27 05:05:36;;;;;;;0.30;0.20;;;;;;;6.40;83.50;96419.88;5094695;28;20491;-54
2022/03/27 05:08:04;;;;;;;0.30;0.20;;;;;;;6.46;81.91;96426.09;5094748;28;20528;-54
2022/03/27 05:10:33;;;;;;;0.30;0.20;;;;;;;6.74;81.26;96423.81;5094673;28;20447;-54
2022/03/27 05:13:01;;;;;;;0.30;0.20;;;;;;;6.54;82.20;96417.94;5095187;28;20436;-54
2022/03/27 05:15:30;;;;;;;0.30;0.20;;;;;;;6.53;81.68;96426.88;5094869;28;20875;-54
2022/03/27 05:18:00;;;;;;;0.43;0.43;;;;;;;6.62;80.81;96430.81;5095038;28;20512;-54
2022/03/27 05:20:30;;;;;;;0.30;0.20;;;;;;;6.46;81.65;96429.53;5094824;28;20516;-54
2022/03/27 05:23:00;;;;;;;0.70;0.70;;;;;;;6.03;88.56;96426.03;5095280;28;20432;-54
2022/03/27 05:25:29;;;;;;;0.77;0.77;;;;;;;5.95;91.73;96416.59;5094878;28;20662;-54
2022/03/27 05:27:59;;;;;;;1.23;0.40;;;;;;;5.86;92.55;96432.84;5094667;28;20526;-54
2022/03/27 05:30:29;;;;;;;1.43;0.87;;;;;;;5.91;92.43;96427.75;5093595;28;20471;-53
2022/03/27 05:32:57;;;;;;;0.43;0.43;;;;;;;5.89;93.01;96427.16;5094586;28;20479;-54
2022/03/27 05:35:27;;;;;;;1.30;1.23;;;;;;;6.60;85.84;96427.63;5094397;28;20968;-54
2022/03/27 05:37:56;;;;;;;0.70;0.70;;;;;;;7.23;80.54;96421.06;5094400;28;20440;-54
2022/03/27 05:40:24;;;;;;;0.77;0.77;;;;;;;7.54;75.55;96420.84;5094369;28;20507;-54
2022/03/27 05:42:53;;;;;;;1.50;0.87;;;;;;;7.81;73.22;96423.16;5094558;28;20467;-54
2022/03/27 05:45:23;;;;;;;0.40;0.30;;;;;;;7.63;74.96;96430.09;5094194;28;20460;-54
2022/03/27 05:47:52;;;;;;;0.40;0.30;;;;;;;7.82;73.25;96433.47;5094353;28;20424;-54
2022/03/27 05:50:22;;;;;;;0.53;0.53;;;;;;;7.07;77.25;96432.19;5094290;28;20416;-54
2022/03/27 05:52:54;;;;;;;0.77;0.77;;;;;;;6.67;83.09;96436.25;5094108;28;20952;-54
2022/03/27 05:55:23;;;;;;;0.70;0.70;;;;;;;7.40;74.43;96423.88;5094334;28;20540;-54
2022/03/27 05:57:52;;;;;;;0.50;0.43;;;;;;;7.36;74.46;96438.56;5093965;28;20523;-54
2022/03/27 06:00:24;;;;;;;1.03;1.00;;;;;;;7.37;74.48;96429.59;5094343;28;20425;-54
2022/03/27 06:02:53;;;;;;;0.80;0.80;;;;;;;8.00;70.67;96406.19;5093913;28;20475;-54
2022/03/27 06:05:23;;;;;;;0.40;0.40;;;;;;;8.09;65.68;96333.56;5093953;28;20876;-54
2022/03/27 06:07:55;;;;;;;0.37;0.27;;;;;;;9.29;62.26;96396.22;5093674;28;20489;-54
2022/03/27 06:10:26;;;;;;;0.30;0.20;;;;;;;10.19;57.43;96398.97;5093802;28;20428;-55
2022/03/27 06:12:55;;;;;;;1.10;1.10;;;;;;;8.92;58.87;96374.56;5094004;28;20416;-54
2022/03/27 06:15:24;;;;;;;1.73;1.63;;;;;;;8.93;66.04;96428.25;5094179;28;20535;-53
2022/03/27 06:17:54;;;;;;;0.50;0.50;;;;;;;10.10;58.96;96421.53;5093457;28;20428;-54
2022/03/27 06:20:25;;;;;;;1.07;1.07;;;;;;;8.29;66.84;96432.59;5093611;28;20507;-53
2022/03/27 06:22:56;;;;;;;4.13;1.77;;;;;;;8.19;69.00;96423.59;5093767;28;20420;-53
2022/03/27 06:25:26;;;;;;;0.60;0.60;;;;;;;8.61;66.15;96424.34;5093814;28;20482;-54
2022/03/27 06:27:55;;;;;;;1.67;1.57;;;;;;;9.35;61.56;96423.59;5093537;28;20475;-54
2022/03/27 06:30:27;;;;;;;0.97;0.97;;;;;;;9.42;59.18;96440.13;5093376;28;20520;-53
2022/03/27 06:32:59;;;;;;;3.00;1.17;;;;;;;10.31;54.70;96426.19;5093419;28;20435;-53
2022/03/27 06:35:30;;;;;;;0.77;0.77;;;;;;;10.05;54.41;96409.00;5093312;28;20428;-53
2022/03/27 06:38:00;;;;;;;0.40;0.30;;;;;;;11.04;52.04;96425.16;5093189;28;20992;-53
2022/03/27 06:40:28;;;;;;;9.20;0.80;;;;;;;10.94;50.29;96415.22;5093566;28;20436;-52
2022/03/27 06:42:57;;;;;;;1.03;1.03;;;;;;;11.89;49.19;96414.81;5092456;28;20791;-52
2022/03/27 06:45:25;;;;;;;0.40;0.40;;;;;;;12.38;46.63;96372.97;5091910;28;20439;-51
2022/03/27 06:47:54;;;;;;;0.47;0.47;;;;;;;12.35;45.37;96422.13;5092764;28;20428;-52
2022/03/27 06:50:23;;;;;;;1.67;0.73;;;;;;;12.25;45.90;96408.75;5092141;28;20479;-51
2022/03/27 06:52:54;;;;;;;0.77;0.50;;;;;;;12.51;45.73;96410.56;5090481;28;20501;-51
2022/03/27 06:55:24;;;;;;;0.50;0.50;;;;;;;12.69;47.06;96407.53;5090335;28;20464;-51
2022/03/27 06:57:52;;;;;;;0.70;0.67;;;;;;;13.15;45.14;96419.28;5090310;28;20463;-51
2022/03/27 07:03:09;;;;;;;0.30;0.30;;;;;;;14.30;42.55;96399.38;5090206;28;20424;-51
2022/03/27 07:05:41;;;;;;;0.93;0.67;;;;;;;14.41;42.02;96381.53;5089691;28;20913;-52
2022/03/27 07:08:10;;;;;;;1.93;1.80;;;;;;;13.50;42.06;96399.19;5092332;28;20464;-52
2022/03/27 07:10:42;;;;;;;1.17;1.17;;;;;;;14.31;42.03;96389.53;5091989;28;20807;-53
2022/03/27 07:13:11;;;;;;;0.70;0.70;;;;;;;15.61;38.72;96385.03;5091947;28;20440;-53
2022/03/27 07:15:41;;;;;;;0.53;0.50;;;;;;;15.83;37.67;96396.13;5091813;28;20432;-53
2022/03/27 07:18:11;;;;;;;0.97;0.93;;;;;;;15.20;38.94;96401.16;5091796;28;20448;-54
2022/03/27 07:20:43;;;;;;;1.60;1.50;;;;;;;15.14;38.22;96396.91;5092404;28;20444;-54
2022/03/27 07:23:15;;;;;;;0.73;0.73;;;;;;;14.54;39.35;96354.31;5092291;28;20456;-55
2022/03/27 07:25:46;;;;;;;2.30;2.20;;;;;;;14.63;39.13;96396.19;5091974;28;20416;-56
2022/03/27 07:28:15;;;;;;;3.30;0.87;;;;;;;14.70;38.84;96395.91;5092880;28;20421;-56
2022/03/27 07:30:45;;;;;;;1.13;1.03;;;;;;;14.87;39.47;96393.78;5097657;28;20924;-57
2022/03/27 07:33:15;;;;;;;1.00;1.00;;;;;;;15.84;37.45;96401.19;5093470;28;20519;-59
2022/03/27 07:35:44;;;;;;;1.00;1.00;;;;;;;16.05;36.64;96395.72;5092557;28;20478;-60
2022/03/27 07:38:12;;;;;;;1.30;1.20;;;;;;;16.42;35.98;96402.16;5091764;28;20486;-61
2022/03/27 07:40:41;;;;;;;2.83;1.50;;;;;;;16.60;36.06;96402.59;5091789;28;20519;-61
2022/03/27 07:43:10;;;;;;;0.53;0.40;;;;;;;16.91;34.97;96379.81;5091486;28;20449;-61
2022/03/27 07:45:39;;;;;;;0.50;0.50;;;;;;;18.16;33.32;96395.47;5091436;28;20504;-60
2022/03/27 07:48:08;;;;;;;0.90;0.70;;;;;;;18.15;32.83;96391.19;5091072;28;20551;-60
2022/03/27 07:50:36;;;;;;;0.50;0.50;;;;;;;18.46;33.14;96392.34;5091243;28;20519;-60
2022/03/27 07:53:06;;;;;;;0.67;0.57;;;;;;;19.78;31.49;96383.50;5091646;28;20869;-60
2022/03/27 07:55:37;;;;;;;4.80;1.77;;;;;;;19.44;32.62;96383.13;5091129;28;20421;-60
2022/03/27 07:58:05;;;;;;;5.10;0.90;;;;;;;19.53;32.45;96384.03;5092046;28;20965;-58
2022/03/27 08:00:35;;;;;;;0.90;0.90;;;;;;;18.97;33.10;96382.34;5091144;28;20435;-58
2022/03/27 08:03:04;;;;;;;2.60;1.43;;;;;;;19.11;33.22;96376.19;5091438;28;20451;-59
2022/03/27 08:05:33;;;;;;;1.70;0.80;;;;;;;18.83;31.47;96384.22;5091180;28;21039;-58
2022/03/27 08:08:01;;;;;;;0.70;0.60;;;;;;;19.58;31.34;96373.16;5092243;28;20456;-58
2022/03/27 08:10:30;;;;;;;0.70;0.70;;;;;;;18.47;31.50;96383.19;5092356;28;20432;-57
2022/03/27 08:12:59;;;;;;;3.10;1.73;;;;;;;18.81;30.93;96377.53;5091522;28;20484;-58
2022/03/27 08:15:28;;;;;;;1.97;1.77;;;;;;;18.58;31.26;96368.53;5092888;28;20416;-57
2022/03/27 08:17:58;;;;;;;1.43;0.90;;;;;;;19.12;30.66;96369.75;5098182;28;20477;-57
2022/03/27 08:20:29;;;;;;;0.80;0.80;;;;;;;19.95;30.23;96347.88;5098035;28;20859;-56
2022/03/27 08:22:58;;;;;;;1.10;0.50;;;;;;;20.85;30.18;96361.88;5098368;28;20448;-57
2022/03/27 08:28:14;;;;;;;3.03;1.33;;;;;;;20.27;27.99;96353.88;5098222;28;20554;-56
2022/03/27 08:30:43;;;;;;;0.80;0.80;;;;;;;20.03;29.33;96358.75;5098841;28;20956;-56
2022/03/27 08:33:13;;;;;;;0.80;0.80;;;;;;;20.22;28.51;96367.44;5098487;28;20416;-56
2022/03/27 08:35:42;;;;;;;1.57;1.47;;;;;;;20.96;28.67;96342.75;5097716;28;20460;-56
2022/03/27 08:38:11;;;;;;;0.57;0.57;;;;;;;22.82;25.95;96337.19;5097450;28;20421;-55
2022/03/27 08:40:40;;;;;;;0.93;0.60;;;;;;;22.56;25.89;96331.03;5098538;28;20424;-56
2022/03/27 08:43:11;;;;;;;5.40;2.40;;;;;;;22.93;26.75;96334.91;5098008;28;20417;-55
2022/03/27 08:45:40;;;;;;;0.50;0.50;;;;;;;23.14;24.79;96338.53;5097780;28;20452;-55
2022/03/27 08:48:10;;;;;;;2.77;1.20;;;;;;;23.17;25.73;96318.94;5097709;28;21140;-56
2022/03/27 08:50:45;;;;;;;4.63;0.50;;;;;;;22.47;25.15;96246.47;5097493;28;20434;-56
2022/03/27 08:53:15;;;;;;;5.00;0.67;;;;;;;24.81;23.28;96303.94;5097714;28;20540;-56
2022/03/27 08:55:49;;;;;;;1.87;0.70;;;;;;;25.06;23.01;96291.19;5097756;28;20430;-55
2022/03/27 08:58:19;;;;;;;0.60;0.60;;;;;;;24.70;24.65;96302.72;5097751;28;20481;-54
2022/03/27 09:00:49;;;;;;;1.30;1.30;;;;;;;24.22;23.35;96302.56;5097491;28;20416;-55
2022/03/27 09:03:21;;;;;;;1.63;1.03;;;;;;;24.28;23.31;96290.41;5097327;28;20435;-55
2022/03/27 09:05:51;;;;;;;10.03;1.23;;;;;;;23.94;23.65;96289.53;5097739;28;20425;-55
2022/03/27 09:08:20;;;;;;;3.70;2.13;;;;;;;24.22;22.19;96270.84;5097577;28;20487;-55
2022/03/27 09:10:49;;;;;;;0.60;0.60;;;;;;;24.89;22.64;96277.84;5097240;28;20527;-55
2022/03/27 09:13:19;;;;;;;0.80;0.80;;;;;;;26.17;21.12;96262.47;5097435;28;20477;-55
2022/03/27 09:15:58;;;;;;;0.50;0.50;;;;;;;25.78;20.86;96271.38;5097703;28;20428;-56
2022/03/27 09:18:27;;;;;;;1.03;0.80;;;;;;;25.45;20.14;96268.03;5097769;28;20847;-55
2022/03/27 09:20:57;;;;;;;1.00;0.60;;;;;;;25.34;21.96;96261.47;5097756;28;20420;-55
2022/03/27 09:23:27;;;;;;;1.77;1.57;;;;;;;25.56;20.33;96258.28;5097354;28;20424;-55
2022/03/27 09:25:58;;;;;;;1.07;1.03;;;;;;;25.75;20.24;96255.78;5097319;28;20452;-55
2022/03/27 09:28:29;;;;;;;0.67;0.50;;;;;;;26.48;19.31;96235.38;5094633;28;20562;-55
2022/03/27 09:31:00;;;;;;;0.53;0.53;;;;;;;25.08;19.83;96251.75;5094115;28;20452;-56
2022/03/27 09:33:49;;;;;;;1.37;0.63;;;;;;;24.43;20.90;96186.78;5094049;28;20489;-56
2022/03/27 09:36:21;;;;;;;0.93;0.90;;;;;;;24.60;20.93;96248.94;5093761;28;20459;-56
2022/03/27 09:39:02;;;;;;;0.87;0.70;;;;;;;25.51;20.15;96247.66;5093804;28;20507;-56
2022/03/27 09:41:34;;;;;;;0.90;0.53;;;;;;;27.23;20.87;96238.03;5093683;28;20996;-55
2022/03/27 09:44:05;;;;;;;1.00;1.00;;;;;;;24.89;21.05;96240.66;5093703;28;20421;-55
2022/03/27 09:46:59;;;;;;;0.70;0.70;;;;;;;25.94;20.43;96234.22;5093875;28;20460;-55
2022/03/27 09:49:42;;;;;;;4.57;1.10;;;;;;;25.72;20.36;96229.31;5083813;28;20493;-56
2022/03/27 09:52:13;;;;;;;0.70;0.70;;;;;;;27.06;18.88;96222.88;5093885;28;20420;-55
2022/03/27 09:54:48;;;;;;;0.50;0.50;;;;;;;28.36;18.88;96209.75;5093665;28;20959;-56
2022/03/27 09:57:19;;;;;;;0.60;0.40;;;;;;;28.94;17.26;96216.66;5093925;28;20489;-55
2022/03/27 09:59:48;;;;;;;0.60;0.43;;;;;;;29.21;17.38;96207.38;5093541;28;20483;-55
2022/03/27 10:02:24;;;;;;;1.00;0.83;;;;;;;27.25;18.53;96199.59;5093762;28;20424;-55
2022/03/27 10:05:05;;;;;;;0.60;0.50;;;;;;;28.20;18.38;96196.19;5093734;28;21148;-55
2022/03/27 10:07:40;;;;;;;0.87;0.87;;;;;;;27.17;17.65;96184.22;5093544;28;20489;-55
2022/03/27 10:10:10;;;;;;;2.43;0.90;;;;;;;25.06;18.32;96136.56;5093331;28;20525;-56
2022/03/27 10:12:40;;;;;;;1.40;1.30;;;;;;;27.09;17.76;96186.78;5093165;28;20998;-56
2022/03/27 10:15:12;;;;;;;4.03;0.73;;;;;;;26.35;17.11;96187.63;5093367;28;20420;-56
2022/03/27 10:17:43;;;;;;;1.00;0.50;;;;;;;27.13;16.25;96121.53;5093406;28;20420;-56
2022/03/27 10:20:14;;;;;;;0.70;0.70;;;;;;;28.03;16.14;96172.13;5093263;28;20428;-56
2022/03/27 10:22:46;;;;;;;0.80;0.80;;;;;;;28.81;16.30;96175.13;5093274;28;20431;-56
2022/03/27 10:25:17;;;;;;;0.90;0.90;;;;;;;28.32;16.61;96166.84;5092912;28;20427;-56
2022/03/27 10:27:47;;;;;;;0.73;0.73;;;;;;;26.89;17.55;96168.03;5093022;28;20559;-56
2022/03/27 10:30:17;;;;;;;0.90;0.70;;;;;;;28.17;16.44;96161.47;5092633;28;20515;-56
2022/03/27 10:32:46;;;;;;;3.60;1.93;;;;;;;28.63;15.81;96163.13;5092891;28;20413;-55
2022/03/27 10:35:48;;;;;;;5.70;1.00;;;;;;;27.95;17.04;96140.41;5092900;28;20559;-56
2022/03/27 10:38:25;;;;;;;0.40;0.30;;;;;;;27.46;16.53;96078.34;5070294;28;20436;-56
2022/03/27 10:41:02;;;;;;;0.87;0.87;;;;;;;28.11;17.26;96157.47;5091820;28;20460;-56
2022/03/27 10:43:45;;;;;;;0.63;0.63;;;;;;;29.56;16.39;96144.25;5092617;28;20698;-56
2022/03/27 10:46:19;;;;;;;0.63;0.63;;;;;;;27.67;16.50;96114.19;5092818;28;20452;-55
2022/03/27 10:48:48;;;;;;;0.70;0.70;;;;;;;26.79;17.11;96146.81;5092260;28;20965;-55
2022/03/27 10:51:37;;;;;;;0.70;0.50;;;;;;;28.83;15.75;96131.88;5092923;28;20451;-56
2022/03/27 10:54:09;;;;;;;0.83;0.53;;;;;;;29.70;16.76;96125.31;5092327;28;20474;-56
2022/03/27 10:56:40;;;;;;;0.77;0.60;;;;;;;29.07;15.80;96129.91;5092134;28;20878;-55
2022/03/27 10:59:17;;;;;;;0.57;0.50;;;;;;;28.23;15.23;96127.31;5092253;28;20960;-56
2022/03/27 11:01:48;;;;;;;0.50;0.40;;;;;;;28.75;15.10;96122.00;5092169;28;20454;-55
2022/03/27 11:04:18;;;;;;;0.87;0.87;;;;;;;29.27;15.34;96123.19;5091072;28;20462;-55
2022/03/27 11:06:47;;;;;;;0.93;0.83;;;;;;;27.92;16.69;96109.19;5091924;28;20511;-55
2022/03/27 11:09:34;;;;;;;0.70;0.60;;;;;;;28.97;15.50;96114.16;5091926;28;20487;-55
2022/03/27 11:12:05;;;;;;;0.80;0.80;;;;;;;30.77;15.11;96106.09;5092098;28;20883;-55
2022/03/27 11:15:00;;;;;;;0.47;0.47;;;;;;;31.24;13.89;96089.63;5091850;28;20473;-55
2022/03/27 11:17:46;;;;;;;0.50;0.30;;;;;;;29.95;13.33;96093.59;5091912;28;20949;-55
2022/03/27 11:20:54;;;;;;;1.17;1.17;;;;;;;26.97;15.40;96104.44;5091739;28;20521;-56
2022/03/27 11:23:31;;;;;;;0.40;0.40;;;;;;;28.45;14.49;96096.53;5091666;28;20524;-55
2022/03/27 11:26:03;;;;;;;1.53;0.60;;;;;;;30.03;15.96;96087.03;5091732;28;20415;-55
2022/03/27 11:28:46;;;;;;;0.60;0.53;;;;;;;30.38;15.17;96083.91;5091847;28;20475;-55
2022/03/27 11:31:26;;;;;;;2.27;2.17;;;;;;;28.88;16.53;96085.16;5091736;28;20504;-56
2022/03/27 11:34:26;;;;;;;2.73;0.97;;;;;;;29.95;15.67;96079.94;5091963;28;20855;-56
2022/03/27 11:37:23;;;;;;;0.73;0.70;;;;;;;29.66;14.89;96079.97;5091866;28;20429;-56
2022/03/27 11:39:52;;;;;;;0.53;0.53;;;;;;;29.41;14.51;96085.13;5091563;28;20945;-55
2022/03/27 11:42:30;;;;;;;0.43;0.40;;;;;;;29.42;13.84;96075.78;5091853;28;20456;-55
2022/03/27 11:45:18;;;;;;;0.73;0.73;;;;;;;29.55;14.26;96075.16;5091758;28;20451;-56
2022/03/27 11:47:49;;;;;;;0.53;0.50;;;;;;;29.96;14.92;96065.09;5091382;28;20506;-55
2022/03/27 11:50:29;;;;;;;4.43;0.60;;;;;;;31.15;13.29;96061.78;5091485;28;20543;-55
2022/03/27 11:52:58;;;;;;;0.77;0.67;;;;;;;30.43;13.84;96056.19;5091534;28;20482;-56
2022/03/27 11:55:30;;;;;;;1.00;0.60;;;;;;;29.09;14.93;96062.06;5091332;28;20948;-56
2022/03/27 11:58:03;;;;;;;0.43;0.43;;;;;;;30.52;14.20;96053.13;5091322;28;20442;-56
2022/03/27 12:00:37;;;;;;;0.50;0.50;;;;;;;30.03;13.32;96050.72;5091251;28;20451;-55
2022/03/27 12:03:16;;;;;;;0.53;0.47;;;;;;;29.69;13.62;96005.44;5091151;28;20415;-56
2022/03/27 12:05:45;;;;;;;7.53;1.30;;;;;;;28.60;14.48;96034.81;5091175;28;20427;-55